Aeroporto :
LOGIN :

Iscrizione | Disclaimer

   EN    FR    IT 

 










Sommario :    VFR   VFR Marginale   IFR   IFR Intensivo   IFR Molto Intensivo
Visibilità : 
Base nubi : 
>= 8 km
>= 3000ft
5 / 8 km
1000 / 3000 ft
1500m / 5 km
500 / 1000 ft
800 / 1500m
200 / 500 ft
< 800m
< 200 ft
Simboli :   Temporali  Nebbia  Neve Forte  Precipitazioni Forti  Vento > 20 kt
SIGMETs :   Varie  Temporali  Ghiacco  Turbolenza  Onda orograficha  Ceneri Vulcaniche







- Altitudine del aeroporto : 41 ft


LIRE - Pratica di Mare Air Base Pomezia

ULTIMO METAR :
  • 152055Z 18001KT CAVOK 21/19 Q1014 RMK SCT SCT200 VIS MIN 9999 WIND THR13 30001KT WIND THR31 /////KT BLU

METARs OBSOLETI :
  • 151955Z 29003KT CAVOK 22/20 Q1014 RMK SCT SCT200 VIS MIN 9999 WIND THR13 31002KT WIND THR31 /////KT BLU
  • 151855Z 28005KT CAVOK 23/21 Q1014 RMK FEW FEW200 VIS MIN 9999 WIND THR13 29004KT WIND THR31 /////KT BLU

TAF TAF LIRE
Valido dal 15 a 21 ore il 16 a 06 ore UTC


152000Z 1521/1606 33007KT CAVOK
Nessun NOTAM noto per questo aeroporto.



MetMap, La meteo Aeronautica in un colpo d'occhio ! - Copyright ORBIFLY Dicembre 2007 - Disclaimer

ORBIFLY MET'MAP TEAM :

Programmazione e sviluppo : Alexandra Zaïnal
Concezione e sviluppo : Baudouin d'Aumeries
Co-Programmazione e sviluppo : Marc-Olivier Méhu
Supporto tecnico e logistico : Manuel Goepfert
Aiuto per la traduzione : Arnaldo La Scala

Contatto : metmap@orbifly.com




FONTI E CREDITI :

   NOAA